Time;durP1;ratioP1;P1;durP2;ratioP2;P2;SDS_P1;SDS_P2;PMS_P1;PMS_P2;Temp;Humidity;BMP_temperature;BMP_pressure;BME280_temperature;BME280_humidity;BME280_pressure;Samples;Min_cycle;Max_cycle;Signal;HPM_P1;HPM_P2
2021/12/13 00:01:27;;;;;;;21.27;9.77;;;;;;;-0.75;100.00;100469.62;1391686;103;21185;-71
2021/12/13 00:04:20;;;;;;;19.53;10.00;;;;;;;-0.77;100.00;100459.56;1391832;103;21108;-71
2021/12/13 00:07:03;;;;;;;21.65;10.43;;;;;;;-0.77;100.00;100454.25;1393216;102;21173;-71
2021/12/13 00:09:33;;;;;;;22.33;10.27;;;;;;;-0.78;100.00;100442.78;1391714;103;21115;-71
2021/12/13 00:12:03;;;;;;;21.37;10.23;;;;;;;-0.79;100.00;100440.21;1391646;103;21100;-70
2021/12/13 00:14:39;;;;;;;22.02;10.20;;;;;;;-0.81;100.00;100454.05;1404494;102;21142;-70
2021/12/13 00:17:10;;;;;;;20.63;9.90;;;;;;;-0.82;100.00;100445.21;1372775;105;21162;-70
2021/12/13 00:19:46;;;;;;;20.17;10.00;;;;;;;-0.82;100.00;100441.23;1372584;105;21095;-70
2021/12/13 00:22:22;;;;;;;23.20;11.00;;;;;;;-0.83;100.00;100428.07;1349172;105;21235;-72
2021/12/13 00:24:50;;;;;;;20.50;10.17;;;;;;;-0.82;100.00;100427.95;1364491;105;21139;-71
2021/12/13 00:27:23;;;;;;;24.23;10.50;;;;;;;-0.83;100.00;100438.69;1368383;103;21146;-71
2021/12/13 00:30:07;;;;;;;;;;;;;;;-0.84;100.00;100435.16;1359114;105;21716;-70
2021/12/13 00:33:13;;;;;;;18.67;9.60;;;;;;;-0.85;100.00;100441.88;1350304;106;20161;-71
2021/12/13 00:36:12;;;;;;;20.17;9.77;;;;;;;-0.85;100.00;100444.08;1350111;106;21226;-70
2021/12/13 00:38:49;;;;;;;20.23;10.47;;;;;;;-0.87;100.00;100432.67;1348482;106;21252;-72
2021/12/13 00:41:21;;;;;;;22.83;10.77;;;;;;;-0.87;100.00;100439.79;1355979;106;21278;-72
2021/12/13 00:43:56;;;;;;;21.73;10.60;;;;;;;-0.88;100.00;100438.09;1357197;104;21157;-70
2021/12/13 00:46:24;;;;;;;19.93;10.47;;;;;;;-0.88;100.00;100432.78;1398060;103;21183;-70
2021/12/13 00:48:53;;;;;;;20.50;9.90;;;;;;;-0.87;100.00;100415.41;1397128;103;21184;-70
2021/12/13 00:51:27;;;;;;;23.53;10.80;;;;;;;-0.88;100.00;100423.01;1360419;104;21146;-70
2021/12/13 00:54:00;;;;;;;23.17;10.40;;;;;;;-0.87;100.00;100420.72;1353270;105;21739;-71
2021/12/13 00:56:51;;;;;;;24.30;11.00;;;;;;;-0.87;100.00;100405.27;1401038;101;21096;-70
2021/12/13 00:59:28;;;;;;;24.50;11.57;;;;;;;-0.87;100.00;100410.10;1458018;98;21147;-70
2021/12/13 01:05:12;;;;;;;20.53;9.60;;;;;;;-0.86;100.00;100392.39;1463639;98;21104;-71
2021/12/13 01:08:32;;;;;;;21.60;10.63;;;;;;;-0.88;100.00;100400.92;1463511;98;21709;-71
2021/12/13 01:11:19;;;;;;;18.73;9.73;;;;;;;-0.90;100.00;100401.01;1463941;97;21088;-70
2021/12/13 01:13:51;;;;;;;25.23;10.37;;;;;;;-0.89;100.00;100416.45;1457630;97;21098;-70
2021/12/13 01:16:38;;;;;;;21.77;9.88;;;;;;;-0.90;100.00;100413.41;1472177;97;21131;-70
2021/12/13 01:22:20;;;;;;;22.13;10.77;;;;;;;-0.92;100.00;100403.35;1462774;96;21621;-71
2021/12/13 01:27:34;;;;;;;22.00;10.10;;;;;;;-0.93;100.00;100399.85;1487809;96;21100;-69
2021/12/13 01:30:01;;;;;;;20.63;10.93;;;;;;;-0.93;100.00;100395.02;1487715;96;21165;-71
2021/12/13 01:32:39;;;;;;;25.00;10.80;;;;;;;-0.93;100.00;100385.73;1487660;96;21601;-71
2021/12/13 01:35:09;;;;;;;25.83;10.43;;;;;;;-0.94;100.00;100388.83;1502811;95;21153;-72
2021/12/13 01:37:36;;;;;;;22.77;11.27;;;;;;;-0.96;100.00;100381.44;1502848;95;21097;-70
2021/12/13 01:40:11;;;;;;;20.23;10.27;;;;;;;-0.95;100.00;100379.18;1502983;95;21129;-71
2021/12/13 01:42:38;;;;;;;20.27;10.70;;;;;;;-0.94;100.00;100368.08;1503228;94;21165;-71
2021/12/13 01:45:12;;;;;;;24.70;10.57;;;;;;;-0.98;100.00;100366.92;1504121;95;21100;-70
2021/12/13 01:47:45;;;;;;;26.97;11.63;;;;;;;-0.99;100.00;100383.81;1477644;96;21100;-70
2021/12/13 01:50:20;;;;;;;24.23;11.37;;;;;;;-0.99;100.00;100406.86;1472442;97;21138;-70
2021/12/13 01:52:50;;;;;;;22.30;10.50;;;;;;;-1.00;100.00;100408.63;1466752;97;21624;-70
2021/12/13 01:55:29;;;;;;;23.77;11.00;;;;;;;-0.98;100.00;100404.57;1450367;99;21171;-70
2021/12/13 01:58:34;;;;;;;22.33;10.70;;;;;;;-0.98;100.00;100388.16;1410676;102;21140;-70
2021/12/13 02:04:01;;;;;;;21.37;10.73;;;;;;;-0.97;100.00;100390.37;1410789;102;21163;-70
2021/12/13 02:06:42;;;;;;;23.03;11.43;;;;;;;-0.98;100.00;100382.00;1410512;102;21144;-69
2021/12/13 02:09:21;;;;;;;25.93;11.03;;;;;;;-0.97;100.00;100383.25;1414742;101;21726;-70
2021/12/13 02:11:51;;;;;;;23.17;10.60;;;;;;;-0.99;100.00;100387.80;1415322;101;21117;-71
2021/12/13 02:14:21;;;;;;;23.53;11.23;;;;;;;-0.99;100.00;100388.28;1434216;99;21060;-69
2021/12/13 02:16:58;;;;;;;23.17;10.73;;;;;;;-1.02;100.00;100395.08;1444245;99;21156;-70
2021/12/13 02:19:32;;;;;;;22.23;10.90;;;;;;;-1.02;100.00;100377.83;1431928;100;21712;-70
2021/12/13 02:22:30;;;;;;;22.00;10.43;;;;;;;-1.01;100.00;100383.05;1354587;106;21159;-70
2021/12/13 02:25:02;;;;;;;22.37;11.40;;;;;;;-1.01;100.00;100388.36;1337936;107;21143;-70
2021/12/13 02:27:33;;;;;;;19.20;10.65;;;;;;;-1.02;100.00;100378.67;1314592;109;21731;-70
2021/12/13 02:30:04;;;;;;;20.97;11.33;;;;;;;-1.02;100.00;100376.50;1314500;109;21660;-70
2021/12/13 02:32:35;;;;;;;22.27;11.07;;;;;;;-1.01;100.00;100378.19;1321879;107;21223;-71
2021/12/13 02:35:00;;;;;;;20.73;11.03;;;;;;;-1.01;100.00;100391.46;1324156;108;21616;-69
2021/12/13 02:37:27;;;;;;;23.53;11.20;;;;;;;-1.02;100.00;100389.29;1324365;108;21182;-70
2021/12/13 02:39:58;;;;;;;20.43;11.47;;;;;;;-1.03;100.00;100381.41;1324197;107;21253;-71
2021/12/13 02:42:25;;;;;;;23.23;12.10;;;;;;;-1.04;100.00;100363.80;1323884;107;21147;-71
2021/12/13 02:45:04;;;;;;;23.60;11.20;;;;;;;-1.06;100.00;100359.02;1324204;108;21170;-72
2021/12/13 02:47:38;;;;;;;25.30;11.60;;;;;;;-1.07;100.00;100364.81;1374144;103;21167;-71
2021/12/13 02:50:18;;;;;;;22.65;10.75;;;;;;;-1.07;100.00;100371.45;1390518;103;21135;-71
2021/12/13 02:52:45;;;;;;;20.73;11.00;;;;;;;-1.04;100.00;100363.80;1390363;103;21653;-71
2021/12/13 02:55:17;;;;;;;22.57;11.37;;;;;;;-1.04;100.00;100359.81;1391352;103;21679;-71
2021/12/13 02:57:48;;;;;;;23.20;12.45;;;;;;;-1.04;100.00;100362.47;1392125;103;21122;-71
2021/12/13 03:00:30;;;;;;;23.53;11.70;;;;;;;-1.03;100.00;100357.52;1392215;103;21314;-71
2021/12/13 03:02:58;;;;;;;23.13;11.97;;;;;;;-1.05;100.00;100360.27;1447860;99;21154;-71
2021/12/13 03:05:32;;;;;;;23.67;11.37;;;;;;;-1.06;100.00;100366.53;1452149;99;21117;-70
2021/12/13 03:08:05;;;;;;;22.87;11.90;;;;;;;-1.06;100.00;100370.52;1452349;99;21166;-71
2021/12/13 03:10:36;;;;;;;25.23;12.03;;;;;;;-1.06;100.00;100374.95;1429341;100;21109;-71
2021/12/13 03:13:03;;;;;;;23.47;11.27;;;;;;;-1.08;100.00;100384.80;1427500;100;21305;-71
2021/12/13 03:15:31;;;;;;;21.80;11.20;;;;;;;-1.08;100.00;100395.41;1420375;101;21152;-72
2021/12/13 03:18:18;;;;;;;22.70;11.37;;;;;;;-1.12;100.00;100382.80;1420845;92;21182;-70
2021/12/13 03:21:03;;;;;;;28.30;12.47;;;;;;;-1.12;100.00;100370.85;1537995;92;21120;-69
2021/12/13 03:24:06;;;;;;;22.43;11.20;;;;;;;-1.10;100.00;100382.23;1567912;88;21064;-71
2021/12/13 03:27:07;;;;;;;20.62;11.08;;;;;;;-1.09;100.00;100370.69;1633621;88;21004;-71
2021/12/13 03:30:06;;;;;;;23.37;11.70;;;;;;;-1.10;100.00;100361.48;1633440;88;21060;-71
2021/12/13 03:32:55;;;;;;;24.97;12.40;;;;;;;-1.11;100.00;100363.28;1633528;87;21060;-70
2021/12/13 03:35:55;;;;;;;24.47;11.80;;;;;;;-1.10;100.00;100361.48;1594051;89;21181;-71
2021/12/13 03:38:27;;;;;;;28.37;13.60;;;;;;;-1.11;100.00;100356.65;1594441;90;21633;-71
2021/12/13 03:40:57;;;;;;;25.23;13.33;;;;;;;-1.11;100.00;100355.80;1576199;91;21075;-70
2021/12/13 03:43:35;;;;;;;28.37;15.13;;;;;;;-1.13;100.00;100355.02;1576133;91;21079;-71
2021/12/13 03:46:05;;;;;;;31.20;15.73;;;;;;;-1.13;100.00;100339.97;1570087;91;21068;-70
2021/12/13 03:48:33;;;;;;;28.33;16.43;;;;;;;-1.13;100.00;100341.30;1535163;92;21116;-71
2021/12/13 03:51:05;;;;;;;34.03;19.20;;;;;;;-1.15;100.00;100351.15;1535037;93;21121;-69
2021/12/13 03:53:33;;;;;;;36.03;20.52;;;;;;;-1.15;100.00;100353.80;1494664;94;21150;-71
2021/12/13 03:56:05;;;;;;;55.83;29.03;;;;;;;-1.15;100.00;100353.32;1533668;94;21050;-70
2021/12/13 03:58:36;;;;;;;60.70;30.83;;;;;;;-1.15;100.00;100351.15;1512642;95;21105;-69
2021/12/13 04:01:13;;;;;;;27.70;14.67;;;;;;;-1.16;100.00;100360.88;1512676;95;21599;-71
2021/12/13 04:03:40;;;;;;;33.33;17.43;;;;;;;-1.16;100.00;100360.04;1481570;96;21163;-71
2021/12/13 04:06:08;;;;;;;33.67;17.47;;;;;;;-1.19;100.00;100367.72;1510405;94;21129;-70
2021/12/13 04:08:43;;;;;;;33.47;16.83;;;;;;;-1.17;100.00;100366.28;1481719;97;21102;-70
2021/12/13 04:11:10;;;;;;;27.87;14.87;;;;;;;-1.16;100.00;100362.69;1529167;94;21149;-70
2021/12/13 04:13:46;;;;;;;34.53;17.67;;;;;;;-1.14;100.00;100362.13;1522530;93;21583;-71
2021/12/13 04:16:34;;;;;;;34.33;17.97;;;;;;;-1.14;100.00;100348.86;1532447;94;21116;-71
2021/12/13 04:19:08;;;;;;;33.57;17.73;;;;;;;-1.12;100.00;100350.10;1532728;93;21611;-70
2021/12/13 04:21:52;;;;;;;27.97;15.53;;;;;;;-1.13;100.00;100337.77;1532292;94;21135;-70
2021/12/13 04:24:36;;;;;;;27.67;14.43;;;;;;;-1.17;100.00;100344.59;1532629;94;21624;-71
2021/12/13 04:27:23;;;;;;;28.30;15.97;;;;;;;-1.20;100.00;100354.53;1532601;90;21076;-70
2021/12/13 04:29:52;;;;;;;30.33;14.90;;;;;;;-1.22;100.00;100352.41;1530446;94;21092;-71
2021/12/13 04:32:33;;;;;;;24.93;13.33;;;;;;;-1.23;100.00;100339.63;1532611;94;21059;-71
2021/12/13 04:35:03;;;;;;;27.43;13.97;;;;;;;-1.23;100.00;100341.44;1552893;91;21212;-71
2021/12/13 04:37:38;;;;;;;31.53;16.53;;;;;;;-1.21;100.00;100340.39;1548653;92;21082;-70
2021/12/13 04:40:22;;;;;;;41.93;21.97;;;;;;;-1.21;100.00;100331.10;1566651;91;21103;-70
2021/12/13 04:42:57;;;;;;;26.43;13.80;;;;;;;-1.21;100.00;100320.97;1576016;90;21705;-71
2021/12/13 04:45:23;;;;;;;30.63;15.53;;;;;;;-1.23;100.00;100326.84;1577058;90;21077;-69
2021/12/13 04:48:18;;;;;;;26.87;14.80;;;;;;;-1.24;100.00;100329.98;1572071;91;21103;-69
2021/12/13 04:50:56;;;;;;;23.50;13.37;;;;;;;-1.27;100.00;100335.45;1575115;91;21613;-70
2021/12/13 04:53:27;;;;;;;27.77;13.77;;;;;;;-1.26;100.00;100348.23;1563644;92;21139;-71
2021/12/13 04:55:58;;;;;;;29.42;13.40;;;;;;;-1.27;100.00;100355.35;1526176;93;21668;-71
2021/12/13 04:58:25;;;;;;;31.37;14.03;;;;;;;-1.25;100.00;100360.09;1520781;94;21083;-70
2021/12/13 05:00:55;;;;;;;26.17;14.10;;;;;;;-1.25;100.00;100348.64;1520593;94;21569;-70
2021/12/13 05:03:27;;;;;;;29.30;16.23;;;;;;;-1.23;100.00;100349.40;1520812;94;21043;-71
2021/12/13 05:05:54;;;;;;;27.27;13.13;;;;;;;-1.21;100.00;100351.00;1520691;94;21153;-70
2021/12/13 05:08:21;;;;;;;28.40;14.07;;;;;;;-1.19;100.00;100344.28;1520906;94;21079;-71
2021/12/13 05:10:49;;;;;;;27.77;13.33;;;;;;;-1.20;100.00;100347.42;1520649;94;21099;-72
2021/12/13 05:13:26;;;;;;;28.23;14.30;;;;;;;-1.20;100.00;100347.42;1521303;94;21076;-70
2021/12/13 05:15:57;;;;;;;26.27;14.30;;;;;;;-1.18;100.00;100338.05;1498512;96;21197;-70
2021/12/13 05:18:30;;;;;;;27.43;13.20;;;;;;;-1.20;100.00;100333.31;1498603;96;21120;-69
2021/12/13 05:21:08;;;;;;;29.48;14.47;;;;;;;-1.21;100.00;100343.52;1498683;96;21620;-70
2021/12/13 05:23:39;;;;;;;33.10;14.37;;;;;;;-1.22;100.00;100346.66;1498793;96;21061;-71
2021/12/13 05:26:08;;;;;;;32.03;14.38;;;;;;;-1.22;100.00;100336.49;1496396;96;21104;-71
2021/12/13 05:28:46;;;;;;;28.97;14.90;;;;;;;-1.25;100.00;100333.56;1498494;96;21590;-70
2021/12/13 05:31:19;;;;;;;29.70;14.93;;;;;;;-1.27;100.00;100331.47;1483781;95;21591;-69
2021/12/13 05:33:53;;;;;;;30.07;15.47;;;;;;;-1.26;100.00;100339.80;1474816;97;21139;-71
2021/12/13 05:36:30;;;;;;;26.60;14.67;;;;;;;-1.25;100.00;100342.84;1469419;97;21160;-71
2021/12/13 05:39:13;;;;;;;32.73;13.93;;;;;;;-1.22;100.00;100355.06;1444852;99;21113;-72
2021/12/13 05:41:43;;;;;;;40.63;14.87;;;;;;;-1.21;100.00;100364.27;1402253;102;21630;-70
2021/12/13 05:44:11;;;;;;;30.13;16.23;;;;;;;-1.20;100.00;100369.13;1402348;102;21104;-70
2021/12/13 05:46:48;;;;;;;30.53;15.50;;;;;;;-1.23;100.00;100367.48;1402639;102;21132;-70
2021/12/13 05:49:30;;;;;;;27.90;14.27;;;;;;;-1.22;100.00;100374.97;1406171;101;21660;-70
2021/12/13 05:52:08;;;;;;;40.13;16.90;;;;;;;-1.21;100.00;100366.08;1455424;97;21113;-70
2021/12/13 05:54:40;;;;;;;31.47;16.17;;;;;;;-1.19;100.00;100358.87;1479179;94;21109;-70
2021/12/13 05:57:12;;;;;;;36.90;16.20;;;;;;;-1.19;100.00;100356.23;1479480;97;21082;-71
2021/12/13 06:00:03;;;;;;;43.50;17.20;;;;;;;-1.21;100.00;100360.29;1479538;97;21122;-71
2021/12/13 06:02:43;;;;;;;29.80;15.28;;;;;;;-1.20;100.00;100356.70;1478800;96;21066;-71
2021/12/13 06:05:17;;;;;;;35.50;17.13;;;;;;;-1.18;100.00;100357.95;1479460;97;21742;-71
2021/12/13 06:07:48;;;;;;;37.37;18.00;;;;;;;-1.20;100.00;100358.52;1479287;96;21082;-70
2021/12/13 06:10:18;;;;;;;37.57;18.40;;;;;;;-1.19;100.00;100353.13;1481523;96;21082;-70
2021/12/13 06:12:57;;;;;;;32.63;16.13;;;;;;;-1.15;100.00;100340.53;1490785;94;21140;-71
2021/12/13 06:15:37;;;;;;;32.50;16.23;;;;;;;-1.11;100.00;100343.86;1511024;94;21114;-72
2021/12/13 06:18:09;;;;;;;30.63;15.83;;;;;;;-1.10;100.00;100353.03;1474810;97;21132;-72
2021/12/13 06:21:03;;;;;;;33.40;15.83;;;;;;;-1.10;100.00;100349.53;1475551;96;21188;-72
2021/12/13 06:23:32;;;;;;;32.93;17.20;;;;;;;-1.07;100.00;100355.52;1485651;97;21119;-71
2021/12/13 06:26:06;;;;;;;30.17;16.37;;;;;;;-1.03;100.00;100361.02;1478642;97;21541;-72
2021/12/13 06:28:39;;;;;;;31.93;16.50;;;;;;;-0.99;100.00;100367.04;1478692;97;21119;-71
2021/12/13 06:31:11;;;;;;;32.85;16.67;;;;;;;-0.98;100.00;100362.09;1483216;95;21092;-72
2021/12/13 06:33:56;;;;;;;42.30;25.13;;;;;;;-0.98;100.00;100360.28;1464272;98;21100;-72
2021/12/13 06:36:35;;;;;;;33.60;17.60;;;;;;;-0.98;100.00;100360.28;1464607;98;21080;-70
2021/12/13 06:39:17;;;;;;;38.70;20.10;;;;;;;-0.98;100.00;100363.42;1477192;97;21591;-77
2021/12/13 06:41:50;;;;;;;29.03;14.83;;;;;;;-0.96;100.00;100352.23;1507097;94;21073;-74
2021/12/13 06:44:25;;;;;;;;;;;;;;;-0.96;100.00;100358.87;1509102;95;21598;-73
2021/12/13 06:46:57;;;;;;;32.00;16.50;;;;;;;-0.97;100.00;100371.30;1508714;94;20201;-73
2021/12/13 06:49:35;;;;;;;31.30;15.87;;;;;;;-0.97;100.00;100383.73;1498932;94;21098;-73
2021/12/13 06:52:11;;;;;;;34.93;16.83;;;;;;;-0.95;100.00;100369.89;1439919;98;21130;-74
2021/12/13 06:55:01;;;;;;;34.53;17.20;;;;;;;-0.96;100.00;100366.84;1445919;97;21134;-73
2021/12/13 06:57:37;;;;;;;36.23;19.30;;;;;;;-0.96;100.00;100370.82;1468541;97;21135;-73
2021/12/13 07:00:22;;;;;;;36.20;20.50;;;;;;;-0.92;100.00;100392.28;1465541;97;21184;-74
2021/12/13 07:03:01;;;;;;;33.53;16.80;;;;;;;-0.90;100.00;100390.84;1484780;95;21083;-73
2021/12/13 07:05:35;;;;;;;31.23;16.73;;;;;;;-0.90;100.00;100387.73;1492831;95;21143;-72
2021/12/13 07:08:07;;;;;;;27.33;15.83;;;;;;;-0.90;100.00;100389.52;1492423;96;21070;-72
2021/12/13 07:10:41;;;;;;;35.87;16.97;;;;;;;-0.90;100.00;100386.41;1496514;96;21155;-73
2021/12/13 07:13:32;;;;;;;32.60;16.70;;;;;;;-0.89;100.00;100384.59;1487790;95;21107;-71
2021/12/13 07:16:25;;;;;;;28.20;14.87;;;;;;;-0.84;100.00;100391.83;1535200;91;21068;-71
2021/12/13 07:19:18;;;;;;;33.63;16.90;;;;;;;-0.81;100.00;100379.23;1509180;94;21107;-72
2021/12/13 07:22:01;;;;;;;32.77;16.63;;;;;;;-0.80;100.00;100370.33;1515952;94;21079;-73
2021/12/13 07:24:33;;;;;;;39.33;24.53;;;;;;;-0.78;100.00;100364.45;1456302;97;21267;-70
2021/12/13 07:27:07;;;;;;;34.75;18.62;;;;;;;-0.73;100.00;100370.80;1469880;97;21622;-70
2021/12/13 07:29:53;;;;;;;31.63;19.00;;;;;;;-0.71;100.00;100359.61;1431502;99;21102;-69
2021/12/13 07:32:32;;;;;;;35.07;18.13;;;;;;;-0.67;100.00;100365.14;1429856;99;21079;-71
2021/12/13 07:35:18;;;;;;;33.27;19.47;;;;;;;-0.62;100.00;100360.41;1432123;99;21116;-70
2021/12/13 07:38:05;;;;;;;46.17;27.87;;;;;;;-0.55;100.00;100368.00;1440188;99;21101;-71
2021/12/13 07:40:52;;;;;;;44.90;21.10;;;;;;;-0.51;100.00;100358.44;1410498;101;21177;-70
2021/12/13 07:43:28;;;;;;;55.90;24.70;;;;;;;-0.49;100.00;100371.15;1410641;101;21101;-70
2021/12/13 07:46:19;;;;;;;40.80;22.67;;;;;;;-0.48;100.00;100371.55;1408710;101;21174;-69
2021/12/13 07:48:51;;;;;;;44.53;21.97;;;;;;;-0.43;100.00;100373.42;1420270;98;21119;-71
2021/12/13 07:51:38;;;;;;;44.70;20.93;;;;;;;-0.35;100.00;100374.75;1439328;98;21429;-71
2021/12/13 07:54:15;;;;;;;38.00;20.90;;;;;;;-0.29;100.00;100361.95;1404709;101;21255;-70
2021/12/13 07:56:50;;;;;;;34.60;19.03;;;;;;;-0.22;100.00;100363.29;1401289;101;21170;-69
2021/12/13 07:59:30;;;;;;;39.23;19.73;;;;;;;-0.18;100.00;100345.83;1395767;102;21102;-70
2021/12/13 08:02:08;;;;;;;38.93;19.23;;;;;;;-0.15;100.00;100350.48;1397015;102;21618;-71
2021/12/13 08:04:45;;;;;;;49.63;23.33;;;;;;;-0.14;100.00;100367.28;1394611;101;21199;-71
2021/12/13 08:07:16;;;;;;;35.80;19.60;;;;;;;-0.12;100.00;100376.04;1408587;100;21086;-70
2021/12/13 08:09:59;;;;;;;37.53;18.90;;;;;;;-0.10;100.00;100376.31;1417317;100;21137;-74
2021/12/13 08:12:31;;;;;;;;;;;;;;;-0.08;100.00;100379.72;1417314;100;21123;-72
2021/12/13 08:15:15;;;;;;;39.73;23.27;;;;;;;-0.06;100.00;100387.13;1465654;96;20170;-72
2021/12/13 08:18:00;;;;;;;51.47;31.80;;;;;;;-0.07;100.00;100375.25;1469969;96;21179;-72
2021/12/13 08:20:30;;;;;;;39.58;23.12;;;;;;;-0.09;100.00;100375.38;1475929;96;21068;-74
2021/12/13 08:22:58;;;;;;;36.90;18.77;;;;;;;-0.12;100.00;100370.23;1468544;96;21075;-69
2021/12/13 08:25:35;;;;;;;35.63;18.83;;;;;;;-0.16;100.00;100360.75;1480122;96;21080;-73
2021/12/13 08:28:11;;;;;;;43.47;23.67;;;;;;;-0.13;100.00;100369.84;1477707;96;21060;-72
2021/12/13 08:30:51;;;;;;;35.03;18.33;;;;;;;-0.06;100.00;100363.20;1488574;91;21109;-74
2021/12/13 08:33:40;;;;;;;35.27;20.17;;;;;;;0.01;100.00;100369.48;1555352;91;21071;-72
2021/12/13 08:36:28;;;;;;;44.07;20.40;;;;;;;0.07;100.00;100374.41;1554334;90;21113;-71
2021/12/13 08:39:09;;;;;;;45.30;22.53;;;;;;;0.09;100.00;100373.38;1576865;90;21118;-71
2021/12/13 08:42:02;;;;;;;43.97;23.47;;;;;;;0.12;100.00;100369.66;1580045;91;21098;-71
2021/12/13 08:44:33;;;;;;;;;;;;;;;0.15;100.00;100356.17;1597567;87;21017;-71
2021/12/13 08:47:06;;;;;;;49.53;20.90;;;;;;;0.12;100.00;100356.36;1636715;85;20152;-70
2021/12/13 08:49:46;;;;;;;42.43;20.27;;;;;;;0.06;100.00;100354.09;1662888;86;21021;-73
2021/12/13 08:52:33;;;;;;;49.57;23.40;;;;;;;0.02;100.00;100362.74;1619055;87;21080;-72
2021/12/13 08:55:23;;;;;;;39.00;21.60;;;;;;;-0.02;100.00;100355.44;1622848;87;21609;-70
2021/12/13 08:58:02;;;;;;;47.60;23.50;;;;;;;-0.03;100.00;100342.23;1621006;87;21112;-71
2021/12/13 09:03:32;;;;;;;39.67;20.37;;;;;;;-0.05;100.00;100333.02;1535201;92;21249;-73
2021/12/13 09:06:25;;;;;;;47.95;24.92;;;;;;;-0.09;100.00;100331.52;1506059;93;21049;-71
2021/12/13 09:09:01;;;;;;;48.83;25.70;;;;;;;-0.10;100.00;100338.25;1541472;92;21522;-71
2021/12/13 09:11:38;;;;;;;53.90;25.37;;;;;;;-0.09;100.00;100335.95;1509527;93;21051;-74
2021/12/13 09:14:20;;;;;;;33.83;20.50;;;;;;;-0.09;100.00;100327.52;1502897;94;21151;-73
2021/12/13 09:17:10;;;;;;;31.97;18.87;;;;;;;-0.10;100.00;100325.80;1508665;94;21643;-71
2021/12/13 09:19:52;;;;;;;39.73;19.77;;;;;;;-0.11;100.00;100326.73;1511262;93;22469;-73
2021/12/13 09:22:33;;;;;;;40.87;18.67;;;;;;;-0.10;100.00;100337.77;1501144;93;21383;-71
2021/12/13 09:25:29;;;;;;;33.93;18.10;;;;;;;-0.05;100.00;100333.02;1512207;93;21124;-71
2021/12/13 09:28:01;;;;;;;48.73;21.73;;;;;;;-0.02;100.00;100332.84;1508046;93;21171;-73
2021/12/13 09:30:57;;;;;;;39.90;20.60;;;;;;;0.07;100.00;100326.09;1507345;93;21533;-73
2021/12/13 09:33:41;;;;;;;36.53;18.40;;;;;;;0.13;100.00;100330.16;1507417;93;21071;-72
2021/12/13 09:36:15;;;;;;;30.20;15.50;;;;;;;0.15;100.00;100314.95;1506612;93;21045;-72
2021/12/13 09:38:58;;;;;;;34.70;17.60;;;;;;;0.13;100.00;100303.56;1493388;94;21246;-72
2021/12/13 09:41:48;;;;;;;32.40;16.83;;;;;;;0.08;100.00;100303.00;1462740;96;24299;-73
2021/12/13 09:44:20;;;;;;;34.37;16.83;;;;;;;0.04;100.00;100307.66;1452191;96;21114;-72
2021/12/13 09:47:07;;;;;;;36.42;18.87;;;;;;;0.04;100.00;100308.98;1440504;98;21191;-73
2021/12/13 09:49:39;;;;;;;41.97;17.63;;;;;;;0.03;100.00;100306.42;1404341;99;21135;-73
2021/12/13 09:52:32;;;;;;;31.43;16.83;;;;;;;0.01;100.00;100300.35;1417285;101;21187;-72
2021/12/13 09:55:13;;;;;;;43.67;23.13;;;;;;;0.02;100.00;100301.59;1416179;101;21364;-71
2021/12/13 09:57:57;;;;;;;40.37;19.03;;;;;;;0.03;100.00;100306.42;1439939;99;21072;-70
2021/12/13 10:00:41;;;;;;;36.53;20.57;;;;;;;-0.02;100.00;100304.92;1449868;97;21109;-70
2021/12/13 10:03:13;;;;;;;32.90;15.57;;;;;;;-0.05;100.00;100304.27;1462944;98;21168;-70
2021/12/13 10:05:45;;;;;;;31.60;16.47;;;;;;;-0.07;100.00;100303.02;1464778;96;21582;-71
2021/12/13 10:08:15;;;;;;;;;;;;;;;-0.10;100.00;100293.91;1465667;98;21111;-71
2021/12/13 10:10:57;;;;;;;33.87;16.23;;;;;;;-0.08;100.00;100293.81;1464126;97;20448;-69
2021/12/13 10:13:29;;;;;;;34.97;15.13;;;;;;;-0.09;100.00;100287.65;1467752;96;21114;-70
2021/12/13 10:16:07;;;;;;;29.02;14.20;;;;;;;-0.10;100.00;100280.61;1463935;98;21085;-69
2021/12/13 10:18:39;;;;;;;34.83;15.80;;;;;;;-0.08;100.00;100280.52;1463369;98;21133;-69
2021/12/13 10:21:16;;;;;;;29.63;15.50;;;;;;;-0.07;100.00;100283.54;1440054;100;21636;-69
2021/12/13 10:23:49;;;;;;;34.77;18.83;;;;;;;-0.03;100.00;100283.74;1438684;99;21123;-70
2021/12/13 10:26:15;;;;;;;32.17;15.63;;;;;;;0.01;100.00;100289.23;1418242;101;21172;-69
2021/12/13 10:31:20;;;;;;;44.83;19.60;;;;;;;0.06;100.00;100297.77;1369384;104;21154;-70
2021/12/13 10:33:47;;;;;;;37.50;16.23;;;;;;;0.08;100.00;100291.87;1381170;104;21133;-72
2021/12/13 10:36:14;;;;;;;26.70;13.63;;;;;;;0.12;100.00;100286.73;1382657;104;21146;-70
2021/12/13 10:38:45;;;;;;;33.37;16.23;;;;;;;0.15;100.00;100280.38;1385571;103;21191;-72
2021/12/13 10:41:20;;;;;;;30.87;16.00;;;;;;;0.20;100.00;100271.63;1387438;103;21137;-72
2021/12/13 10:43:54;;;;;;;36.93;16.47;;;;;;;0.26;100.00;100268.56;1367613;105;21231;-72
2021/12/13 10:46:26;;;;;;;35.57;19.03;;;;;;;0.33;100.00;100266.36;1356801;105;21170;-72
2021/12/13 10:49:00;;;;;;;33.02;15.53;;;;;;;0.42;100.00;100267.58;1347890;105;21253;-71
2021/12/13 10:51:37;;;;;;;27.77;14.77;;;;;;;0.49;100.00;100268.39;1347076;105;21088;-72
2021/12/13 10:54:09;;;;;;;32.03;17.90;;;;;;;0.56;100.00;100262.19;1345489;105;21165;-70
2021/12/13 10:56:41;;;;;;;31.68;16.80;;;;;;;0.56;100.00;100269.69;1337918;107;21741;-71
2021/12/13 10:59:13;;;;;;;41.93;17.27;;;;;;;0.58;100.00;100275.40;1314778;108;21120;-68
2021/12/13 11:01:47;;;;;;;57.73;21.02;;;;;;;0.54;100.00;100272.93;1313025;109;21183;-69
2021/12/13 11:04:22;;;;;;;37.30;16.90;;;;;;;0.51;100.00;100272.28;1313428;109;21143;-71
2021/12/13 11:06:49;;;;;;;35.17;16.70;;;;;;;0.48;100.00;100280.00;1313144;109;21276;-69
2021/12/13 11:09:20;;;;;;;30.33;15.10;;;;;;;0.45;100.00;100280.20;1361360;102;21150;-70
2021/12/13 11:11:51;;;;;;;40.73;23.50;;;;;;;0.45;100.00;100271.37;1435544;100;21146;-71
2021/12/13 11:14:20;;;;;;;38.00;15.57;;;;;;;0.44;100.00;100259.85;1455745;98;21144;-71
2021/12/13 11:16:53;;;;;;;31.23;13.27;;;;;;;0.45;100.00;100262.91;1457108;98;21173;-72
2021/12/13 11:19:23;;;;;;;38.90;19.37;;;;;;;0.48;100.00;100252.06;1457565;98;21108;-74
2021/12/13 11:21:54;;;;;;;31.73;16.00;;;;;;;0.51;100.00;100252.33;1454211;97;21600;-71
2021/12/13 11:24:23;;;;;;;29.67;14.97;;;;;;;0.53;100.00;100246.42;1453619;99;21138;-73
2021/12/13 11:26:55;;;;;;;31.03;14.73;;;;;;;0.57;100.00;100239.96;1453582;99;21110;-72
2021/12/13 11:29:24;;;;;;;28.53;13.13;;;;;;;0.58;100.00;100232.82;1453797;99;21147;-72
2021/12/13 11:32:00;;;;;;;27.90;14.63;;;;;;;0.55;100.00;100228.09;1453556;99;21250;-71
2021/12/13 11:35:17;;;;;;;36.33;18.07;;;;;;;0.56;100.00;100231.11;1458948;98;21077;-72
2021/12/13 11:38:11;;;;;;;46.87;25.47;;;;;;;0.58;100.00;100230.16;1462162;97;21579;-74
2021/12/13 11:41:29;;;;;;;32.60;15.00;;;;;;;0.61;100.00;100227.30;1463105;98;21080;-72
2021/12/13 11:44:06;;;;;;;35.67;19.13;;;;;;;0.60;100.00;100234.90;1519706;93;21106;-71
2021/12/13 11:47:06;;;;;;;28.37;13.87;;;;;;;0.58;100.00;100243.47;1618510;87;21030;-71
2021/12/13 11:49:49;;;;;;;36.67;17.47;;;;;;;0.58;100.00;100248.79;1629775;86;21097;-70
2021/12/13 11:53:04;;;;;;;36.53;18.07;;;;;;;0.60;100.00;100255.70;1631518;88;21061;-72
2021/12/13 11:55:57;;;;;;;37.10;15.57;;;;;;;0.61;100.00;100256.58;1631445;88;21606;-72
2021/12/13 11:59:22;;;;;;;38.67;18.50;;;;;;;0.58;100.00;100267.41;1631867;88;21057;-73
2021/12/13 12:02:11;;;;;;;79.77;30.10;;;;;;;0.53;100.00;100265.05;1631746;88;21581;-71
2021/12/13 12:05:32;;;;;;;34.33;15.77;;;;;;;0.46;100.00;100269.95;1581239;90;21096;-72
2021/12/13 12:08:36;;;;;;;32.03;15.63;;;;;;;0.46;100.00;100261.09;1546108;92;21567;-70